KVCT - Victoria Rgnl, TX, US

Issued at 1120 UTC 20 Oct 2021
Updated at 1323 UTC 20 Oct 2021
Potential Impact None Slight Moderate High
Time1251Z 20/14Z 20/15Z 20/16Z 20/17Z 20/18Z 20/19Z 20/20Z 20/21Z 20/22Z 20/23Z 21/00Z 21/01Z 21/02Z>>
Type OBS PRVL PRVL PRVL PRVL PRVL PRVL PRVL PRVL PRVL PRVL PRVL PRVL PRVL
VIS 3 >6 >6 >6 >6 >6 >6 >6 >6 >6 >6 >6 >6 >6
CIG -- -- -- -- -- -- -- -- -- -- -- -- -- --
Cover CLR SCT SCT SCT SCT SCT SCT SCT SCT SCT SCT SCT SCT SCT
FltCat MVFR VFR VFR VFR VFR VFR VFR VFR VFR VFR VFR VFR VFR VFR
WX BR -- -- -- -- -- -- -- -- -- -- -- -- --
WDir 350 VRB VRB VRB VRB 130 130 130 130 130 130 130 130 130
WSpd 3 4 4 4 4 6 6 6 6 6 6 6 6 6
WGst -- -- -- -- -- -- -- -- -- -- -- -- -- --
Raw TAF
KVCT 201120Z 2012/2112 VRB04KT 4SM BR BKN090
  TEMPO 2012/2013 1SM BR
  FM201400 VRB04KT P6SM FEW045 SCT120
  FM201800 13006KT P6SM FEW060 SCT250
  FM210800 VRB01KT 3SM BR FEW026 FEW090


Raw METAR
KVCT 201251Z 35003KT 3SM BR CLR 17/17 A3006 RMK AO2 SLP178 T01720167
KVCT 201151Z 36004KT 3SM BR CLR 17/16 A3005 RMK AO2 SLP174 T01670161 10189 20161 51006
KVCT 201051Z AUTO 34004KT 3SM BR CLR 17/16 A3004 RMK AO2 SLP172 T01670161
KVCT 201046Z AUTO 35004KT 3SM BR CLR 17/16 A3004 RMK AO2
KVCT 201032Z AUTO 36003KT 2 1/2SM BR CLR 17/16 A3004 RMK AO2 T01720161

METAR Board
Radar Display
Forecast Discussion
For situational awareness. Not to be used for flight planning purposes.